sensor_id;sensor_type;location;lat;lon;timestamp;pressure;altitude;pressure_sealevel;temperature;humidity
80733;BME280;70130;44.534;18.678;2024-02-21T00:02:03;99829.44;;;5.98;100.00
80733;BME280;70130;44.534;18.678;2024-02-21T00:04:29;99844.09;;;6.00;100.00
80733;BME280;70130;44.534;18.678;2024-02-21T00:06:55;99837.44;;;5.93;100.00
80733;BME280;70130;44.534;18.678;2024-02-21T00:09:20;99830.28;;;5.88;100.00
80733;BME280;70130;44.534;18.678;2024-02-21T00:11:46;99818.53;;;5.84;100.00
80733;BME280;70130;44.534;18.678;2024-02-21T00:14:12;99798.09;;;5.70;100.00
80733;BME280;70130;44.534;18.678;2024-02-21T00:16:37;99832.41;;;5.91;100.00
80733;BME280;70130;44.534;18.678;2024-02-21T00:19:03;99823.88;;;5.89;100.00
80733;BME280;70130;44.534;18.678;2024-02-21T00:21:28;99831.06;;;5.94;100.00
80733;BME280;70130;44.534;18.678;2024-02-21T00:23:54;99824.41;;;5.91;100.00
80733;BME280;70130;44.534;18.678;2024-02-21T00:26:19;99822.81;;;5.90;100.00
80733;BME280;70130;44.534;18.678;2024-02-21T00:28:45;99816.44;;;5.81;100.00
80733;BME280;70130;44.534;18.678;2024-02-21T00:31:11;99817.25;;;5.77;100.00
80733;BME280;70130;44.534;18.678;2024-02-21T00:33:36;99834.53;;;5.89;100.00
80733;BME280;70130;44.534;18.678;2024-02-21T00:36:02;99835.06;;;5.96;100.00
80733;BME280;70130;44.534;18.678;2024-02-21T00:38:28;99832.88;;;6.03;100.00
80733;BME280;70130;44.534;18.678;2024-02-21T00:40:54;99821.72;;;6.01;100.00
80733;BME280;70130;44.534;18.678;2024-02-21T00:43:19;99828.31;;;6.09;100.00
80733;BME280;70130;44.534;18.678;2024-02-21T00:45:49;99826.22;;;6.06;100.00
80733;BME280;70130;44.534;18.678;2024-02-21T00:48:15;99830.75;;;6.05;100.00
80733;BME280;70130;44.534;18.678;2024-02-21T00:50:40;99832.91;;;5.93;100.00
80733;BME280;70130;44.534;18.678;2024-02-21T00:53:06;99816.41;;;5.96;100.00
80733;BME280;70130;44.534;18.678;2024-02-21T00:55:31;99828.09;;;6.05;100.00
80733;BME280;70130;44.534;18.678;2024-02-21T00:57:57;99812.94;;;5.96;100.00
80733;BME280;70130;44.534;18.678;2024-02-21T01:00:22;99810.50;;;5.99;100.00
80733;BME280;70130;44.534;18.678;2024-02-21T01:02:48;99799.06;;;5.99;100.00
80733;BME280;70130;44.534;18.678;2024-02-21T01:05:13;99809.41;;;6.11;100.00
80733;BME280;70130;44.534;18.678;2024-02-21T01:07:39;99807.78;;;6.15;100.00
80733;BME280;70130;44.534;18.678;2024-02-21T01:10:06;99803.00;;;6.17;100.00
80733;BME280;70130;44.534;18.678;2024-02-21T01:12:31;99796.59;;;6.13;100.00
80733;BME280;70130;44.534;18.678;2024-02-21T01:14:57;99802.94;;;6.22;100.00
80733;BME280;70130;44.534;18.678;2024-02-21T01:17:22;99799.00;;;6.09;100.00
80733;BME280;70130;44.534;18.678;2024-02-21T01:19:48;99801.38;;;6.16;100.00
80733;BME280;70130;44.534;18.678;2024-02-21T01:22:13;99792.88;;;6.08;100.00
80733;BME280;70130;44.534;18.678;2024-02-21T01:24:41;99795.00;;;6.17;100.00
80733;BME280;70130;44.534;18.678;2024-02-21T01:27:06;99787.53;;;6.14;100.00
80733;BME280;70130;44.534;18.678;2024-02-21T01:29:32;99771.09;;;6.01;100.00
80733;BME280;70130;44.534;18.678;2024-02-21T01:31:58;99793.69;;;6.09;100.00
80733;BME280;70130;44.534;18.678;2024-02-21T01:34:23;99793.47;;;6.00;100.00
80733;BME280;70130;44.534;18.678;2024-02-21T01:36:49;99790.81;;;5.95;100.00
80733;BME280;70130;44.534;18.678;2024-02-21T01:39:14;99748.28;;;5.70;100.00
80733;BME280;70130;44.534;18.678;2024-02-21T01:41:40;99800.88;;;6.08;100.00
80733;BME280;70130;44.534;18.678;2024-02-21T01:44:05;99786.25;;;6.06;100.00
80733;BME280;70130;44.534;18.678;2024-02-21T01:46:31;99788.13;;;6.00;100.00
80733;BME280;70130;44.534;18.678;2024-02-21T01:48:57;99801.66;;;6.14;100.00
80733;BME280;70130;44.534;18.678;2024-02-21T01:51:23;99787.06;;;6.06;100.00
80733;BME280;70130;44.534;18.678;2024-02-21T01:53:50;99783.31;;;6.02;100.00
80733;BME280;70130;44.534;18.678;2024-02-21T01:56:17;99799.59;;;6.01;100.00
80733;BME280;70130;44.534;18.678;2024-02-21T01:58:43;99794.78;;;6.03;100.00
80733;BME280;70130;44.534;18.678;2024-02-21T02:01:12;99779.94;;;5.92;100.00
80733;BME280;70130;44.534;18.678;2024-02-21T02:03:37;99797.72;;;6.01;100.00
80733;BME280;70130;44.534;18.678;2024-02-21T02:06:05;99785.44;;;6.05;100.00
80733;BME280;70130;44.534;18.678;2024-02-21T02:08:32;99780.34;;;6.09;100.00
80733;BME280;70130;44.534;18.678;2024-02-21T02:10:58;99782.75;;;6.11;100.00
80733;BME280;70130;44.534;18.678;2024-02-21T02:13:24;99786.72;;;6.13;100.00
80733;BME280;70130;44.534;18.678;2024-02-21T02:15:50;99787.25;;;6.20;100.00
80733;BME280;70130;44.534;18.678;2024-02-21T02:18:17;99779.28;;;6.15;100.00
80733;BME280;70130;44.534;18.678;2024-02-21T02:20:44;99779.28;;;6.15;100.00
80733;BME280;70130;44.534;18.678;2024-02-21T02:23:12;99786.47;;;6.15;100.00
80733;BME280;70130;44.534;18.678;2024-02-21T02:25:39;99787.81;;;6.07;100.00
80733;BME280;70130;44.534;18.678;2024-02-21T02:28:08;99787.53;;;6.14;100.00
80733;BME280;70130;44.534;18.678;2024-02-21T02:30:34;99789.75;;;6.01;100.00
80733;BME280;70130;44.534;18.678;2024-02-21T02:33:02;99777.78;;;5.94;100.00
80733;BME280;70130;44.534;18.678;2024-02-21T02:35:28;99792.16;;;5.93;100.00
80733;BME280;70130;44.534;18.678;2024-02-21T02:37:54;99775.72;;;5.71;100.00
80733;BME280;70130;44.534;18.678;2024-02-21T02:40:19;99794.56;;;5.84;100.00
80733;BME280;70130;44.534;18.678;2024-02-21T02:42:45;99807.09;;;5.89;100.00
80733;BME280;70130;44.534;18.678;2024-02-21T02:45:11;99809.47;;;5.85;100.00
80733;BME280;70130;44.534;18.678;2024-02-21T02:47:36;99812.94;;;5.96;100.00
80733;BME280;70130;44.534;18.678;2024-02-21T02:50:02;99808.91;;;6.03;100.00
80733;BME280;70130;44.534;18.678;2024-02-21T02:52:28;99813.16;;;6.04;100.00
80733;BME280;70130;44.534;18.678;2024-02-21T02:54:54;99804.38;;;6.04;100.00
80733;BME280;70130;44.534;18.678;2024-02-21T02:57:21;99807.84;;;5.99;100.00
80733;BME280;70130;44.534;18.678;2024-02-21T02:59:48;99803.34;;;5.95;100.00
80733;BME280;70130;44.534;18.678;2024-02-21T03:02:13;99820.91;;;6.01;100.00
80733;BME280;70130;44.534;18.678;2024-02-21T03:04:39;99811.09;;;5.81;100.00
80733;BME280;70130;44.534;18.678;2024-02-21T03:07:06;99813.22;;;5.89;100.00
80733;BME280;70130;44.534;18.678;2024-02-21T03:09:31;99807.91;;;5.89;100.00
80733;BME280;70130;44.534;18.678;2024-02-21T03:11:57;99824.88;;;6.03;100.00
80733;BME280;70130;44.534;18.678;2024-02-21T03:14:31;99817.97;;;5.97;100.00
80733;BME280;70130;44.534;18.678;2024-02-21T03:16:58;99815.28;;;6.02;100.00
80733;BME280;70130;44.534;18.678;2024-02-21T03:19:24;99824.88;;;6.03;100.00
80733;BME280;70130;44.534;18.678;2024-02-21T03:21:50;99779.97;;;5.72;100.00
80733;BME280;70130;44.534;18.678;2024-02-21T03:24:16;99815.03;;;5.99;100.00
80733;BME280;70130;44.534;18.678;2024-02-21T03:26:42;99826.72;;;6.08;100.00
80733;BME280;70130;44.534;18.678;2024-02-21T03:29:08;99828.09;;;6.05;100.00
80733;BME280;70130;44.534;18.678;2024-02-21T03:31:37;99825.41;;;6.11;100.00
80733;BME280;70130;44.534;18.678;2024-02-21T03:34:03;99826.47;;;6.04;100.00
80733;BME280;70130;44.534;18.678;2024-02-21T03:36:28;99825.09;;;6.12;100.00
80733;BME280;70130;44.534;18.678;2024-02-21T03:38:55;99837.63;;;6.17;100.00
80733;BME280;70130;44.534;18.678;2024-02-21T03:41:21;99839.97;;;6.23;100.00
80733;BME280;70130;44.534;18.678;2024-02-21T03:43:47;99838.97;;;6.14;100.00
80733;BME280;70130;44.534;18.678;2024-02-21T03:46:12;99821.94;;;6.10;100.00
80733;BME280;70130;44.534;18.678;2024-02-21T03:48:38;99838.38;;;6.22;100.00
80733;BME280;70130;44.534;18.678;2024-02-21T03:51:04;99835.72;;;6.22;100.00
80733;BME280;70130;44.534;18.678;2024-02-21T03:53:30;99837.91;;;6.15;100.00
80733;BME280;70130;44.534;18.678;2024-02-21T03:55:56;99853.31;;;6.18;100.00
80733;BME280;70130;44.534;18.678;2024-02-21T03:58:22;99835.75;;;6.17;100.00
80733;BME280;70130;44.534;18.678;2024-02-21T04:00:47;99849.03;;;6.22;100.00
80733;BME280;70130;44.534;18.678;2024-02-21T04:03:13;99852.53;;;6.18;100.00
80733;BME280;70130;44.534;18.678;2024-02-21T04:05:39;99854.72;;;6.11;100.00
80733;BME280;70130;44.534;18.678;2024-02-21T04:08:05;99847.78;;;6.04;100.00
80733;BME280;70130;44.534;18.678;2024-02-21T04:10:31;99852.06;;;6.05;100.00
80733;BME280;70130;44.534;18.678;2024-02-21T04:12:56;99852.06;;;6.05;100.00
80733;BME280;70130;44.534;18.678;2024-02-21T04:15:22;99844.56;;;6.07;100.00
80733;BME280;70130;44.534;18.678;2024-02-21T04:17:48;99842.19;;;6.11;100.00
80733;BME280;70130;44.534;18.678;2024-02-21T04:20:15;99849.09;;;6.12;100.00
80733;BME280;70130;44.534;18.678;2024-02-21T04:22:44;99823.34;;;5.87;100.00
80733;BME280;70130;44.534;18.678;2024-02-21T04:25:10;99851.75;;;6.07;100.00
80733;BME280;70130;44.534;18.678;2024-02-21T04:27:39;99841.94;;;6.02;100.00
80733;BME280;70130;44.534;18.678;2024-02-21T04:30:06;99852.56;;;6.07;100.00
80733;BME280;70130;44.534;18.678;2024-02-21T04:32:32;99839.25;;;6.02;100.00
80733;BME280;70130;44.534;18.678;2024-02-21T04:34:58;99851.00;;;6.06;100.00
80733;BME280;70130;44.534;18.678;2024-02-21T04:37:24;99859.75;;;6.12;100.00
80733;BME280;70130;44.534;18.678;2024-02-21T04:39:50;99843.03;;;5.96;100.00
80733;BME280;70130;44.534;18.678;2024-02-21T04:42:16;99862.53;;;5.87;100.00
80733;BME280;70130;44.534;18.678;2024-02-21T04:44:42;99847.06;;;5.79;100.00
80733;BME280;70130;44.534;18.678;2024-02-21T04:47:08;99833.75;;;5.79;100.00
80733;BME280;70130;44.534;18.678;2024-02-21T04:49:34;99861.72;;;5.91;100.00
80733;BME280;70130;44.534;18.678;2024-02-21T04:52:00;99856.38;;;5.86;100.00
80733;BME280;70130;44.534;18.678;2024-02-21T04:54:25;99864.88;;;5.98;100.00
80733;BME280;70130;44.534;18.678;2024-02-21T04:56:51;99854.75;;;5.95;100.00
80733;BME280;70130;44.534;18.678;2024-02-21T04:59:17;99852.38;;;5.94;100.00
80733;BME280;70130;44.534;18.678;2024-02-21T05:01:43;99844.63;;;5.82;100.00
80733;BME280;70130;44.534;18.678;2024-02-21T05:04:08;99871.03;;;5.89;100.00
80733;BME280;70130;44.534;18.678;2024-02-21T05:06:38;99870.75;;;5.80;100.00
80733;BME280;70130;44.534;18.678;2024-02-21T05:09:04;99869.94;;;5.85;100.00
80733;BME280;70130;44.534;18.678;2024-02-21T05:11:30;99869.16;;;5.79;100.00
80733;BME280;70130;44.534;18.678;2024-02-21T05:13:56;99870.22;;;5.83;100.00
80733;BME280;70130;44.534;18.678;2024-02-21T05:16:22;99859.28;;;5.85;100.00
80733;BME280;70130;44.534;18.678;2024-02-21T05:18:48;99876.63;;;5.87;100.00
80733;BME280;70130;44.534;18.678;2024-02-21T05:21:13;99870.53;;;5.87;100.00
80733;BME280;70130;44.534;18.678;2024-02-21T05:23:39;99867.03;;;5.91;100.00
80733;BME280;70130;44.534;18.678;2024-02-21T05:26:05;99848.41;;;5.81;100.00
80733;BME280;70130;44.534;18.678;2024-02-21T05:28:31;99851.59;;;5.73;100.00
80733;BME280;70130;44.534;18.678;2024-02-21T05:30:57;99859.59;;;5.68;100.00
80733;BME280;70130;44.534;18.678;2024-02-21T05:33:22;99860.41;;;5.69;100.00
80733;BME280;70130;44.534;18.678;2024-02-21T05:35:48;99866.78;;;5.73;100.00
80733;BME280;70130;44.534;18.678;2024-02-21T05:38:14;99864.94;;;5.63;100.00
80733;BME280;70130;44.534;18.678;2024-02-21T05:40:41;99881.44;;;5.70;100.00
80733;BME280;70130;44.534;18.678;2024-02-21T05:43:09;99874.50;;;5.69;100.00
80733;BME280;70130;44.534;18.678;2024-02-21T05:45:35;99869.41;;;5.78;100.00
80733;BME280;70130;44.534;18.678;2024-02-21T05:48:01;99870.53;;;5.72;100.00
80733;BME280;70130;44.534;18.678;2024-02-21T05:50:28;99890.22;;;5.81;100.00
80733;BME280;70130;44.534;18.678;2024-02-21T05:52:56;99882.47;;;5.84;100.00
80733;BME280;70130;44.534;18.678;2024-02-21T05:55:22;99885.69;;;5.81;100.00
80733;BME280;70130;44.534;18.678;2024-02-21T05:57:48;99883.53;;;5.78;100.00
80733;BME280;70130;44.534;18.678;2024-02-21T06:00:14;99872.63;;;5.80;100.00
80733;BME280;70130;44.534;18.678;2024-02-21T06:02:40;99887.53;;;5.86;100.00
80733;BME280;70130;44.534;18.678;2024-02-21T06:05:06;99876.06;;;5.85;100.00
80733;BME280;70130;44.534;18.678;2024-02-21T06:07:35;99884.59;;;5.87;100.00
80733;BME280;70130;44.534;18.678;2024-02-21T06:10:02;99885.94;;;5.90;100.00
80733;BME280;70130;44.534;18.678;2024-02-21T06:12:28;99888.34;;;5.81;100.00
80733;BME280;70130;44.534;18.678;2024-02-21T06:14:53;99888.06;;;5.78;100.00
80733;BME280;70130;44.534;18.678;2024-02-21T06:17:19;99868.66;;;5.77;100.00
80733;BME280;70130;44.534;18.678;2024-02-21T06:19:45;99891.00;;;5.86;100.00
80733;BME280;70130;44.534;18.678;2024-02-21T06:22:10;99885.41;;;5.88;100.00
80733;BME280;70130;44.534;18.678;2024-02-21T06:24:36;99899.00;;;5.96;100.00
80733;BME280;70130;44.534;18.678;2024-02-21T06:27:07;99891.53;;;5.88;100.00
80733;BME280;70130;44.534;18.678;2024-02-21T06:29:33;99910.13;;;6.03;100.00
80733;BME280;70130;44.534;18.678;2024-02-21T06:32:00;99912.56;;;5.95;100.00
80733;BME280;70130;44.534;18.678;2024-02-21T06:34:26;99903.25;;;5.92;100.00
80733;BME280;70130;44.534;18.678;2024-02-21T06:36:51;99910.16;;;5.93;100.00
80733;BME280;70130;44.534;18.678;2024-02-21T06:39:17;99911.78;;;5.89;100.00
80733;BME280;70130;44.534;18.678;2024-02-21T06:41:43;99899.81;;;5.87;100.00
80733;BME280;70130;44.534;18.678;2024-02-21T06:44:09;99909.66;;;5.91;100.00
80733;BME280;70130;44.534;18.678;2024-02-21T06:46:34;99921.38;;;5.90;100.00
80733;BME280;70130;44.534;18.678;2024-02-21T06:49:01;99913.66;;;5.89;100.00
80733;BME280;70130;44.534;18.678;2024-02-21T06:51:28;99916.06;;;5.90;100.00
80733;BME280;70130;44.534;18.678;2024-02-21T06:53:54;99917.66;;;5.91;100.00
80733;BME280;70130;44.534;18.678;2024-02-21T06:56:20;99921.38;;;5.95;100.00
80733;BME280;70130;44.534;18.678;2024-02-21T06:58:45;99929.88;;;5.92;100.00
80733;BME280;70130;44.534;18.678;2024-02-21T07:01:11;99930.94;;;5.86;100.00
80733;BME280;70130;44.534;18.678;2024-02-21T07:03:37;99936.78;;;5.83;100.00
80733;BME280;70130;44.534;18.678;2024-02-21T07:06:03;99941.88;;;5.80;100.00
80733;BME280;70130;44.534;18.678;2024-02-21T07:08:29;99924.59;;;5.67;100.00
80733;BME280;70130;44.534;18.678;2024-02-21T07:10:55;99950.94;;;5.74;100.00
80733;BME280;70130;44.534;18.678;2024-02-21T07:13:20;99940.81;;;5.65;100.00
80733;BME280;70130;44.534;18.678;2024-02-21T07:15:48;99932.84;;;5.60;100.00
80733;BME280;70130;44.534;18.678;2024-02-21T07:18:13;99936.03;;;5.62;100.00
80733;BME280;70130;44.534;18.678;2024-02-21T07:20:39;99954.41;;;5.74;100.00
80733;BME280;70130;44.534;18.678;2024-02-21T07:23:07;99955.19;;;5.80;100.00
80733;BME280;70130;44.534;18.678;2024-02-21T07:25:33;99945.59;;;5.74;100.00
80733;BME280;70130;44.534;18.678;2024-02-21T07:27:58;99940.03;;;5.70;100.00
80733;BME280;70130;44.534;18.678;2024-02-21T07:30:24;99933.09;;;5.64;100.00
80733;BME280;70130;44.534;18.678;2024-02-21T07:32:50;99960.25;;;5.81;100.00
80733;BME280;70130;44.534;18.678;2024-02-21T07:35:17;99964.78;;;5.81;100.00
80733;BME280;70130;44.534;18.678;2024-02-21T07:37:43;99944.78;;;5.78;100.00
80733;BME280;70130;44.534;18.678;2024-02-21T07:40:16;99941.63;;;5.81;100.00
80733;BME280;70130;44.534;18.678;2024-02-21T07:42:42;99947.47;;;5.93;100.00
80733;BME280;70130;44.534;18.678;2024-02-21T07:45:08;99945.84;;;5.97;100.00
80733;BME280;70130;44.534;18.678;2024-02-21T07:47:34;99944.28;;;6.01;100.00
80733;BME280;70130;44.534;18.678;2024-02-21T07:50:01;99947.41;;;6.14;100.00
80733;BME280;70130;44.534;18.678;2024-02-21T07:52:27;99946.34;;;6.15;100.00
80733;BME280;70130;44.534;18.678;2024-02-21T07:54:53;99931.16;;;6.20;100.00
80733;BME280;70130;44.534;18.678;2024-02-21T07:57:19;99946.28;;;6.35;100.00
80733;BME280;70130;44.534;18.678;2024-02-21T07:59:44;99947.34;;;6.39;100.00
80733;BME280;70130;44.534;18.678;2024-02-21T08:02:14;99948.13;;;6.44;100.00
80733;BME280;70130;44.534;18.678;2024-02-21T08:04:39;99943.59;;;6.45;100.00
80733;BME280;70130;44.534;18.678;2024-02-21T08:07:05;99955.56;;;6.42;100.00
80733;BME280;70130;44.534;18.678;2024-02-21T08:09:31;99954.75;;;6.47;100.00
80733;BME280;70130;44.534;18.678;2024-02-21T08:11:56;99955.81;;;6.56;100.00
80733;BME280;70130;44.534;18.678;2024-02-21T08:14:22;99959.78;;;6.59;100.00
80733;BME280;70130;44.534;18.678;2024-02-21T08:16:50;99956.22;;;6.78;100.00
80733;BME280;70130;44.534;18.678;2024-02-21T08:19:18;99958.59;;;6.85;100.00
80733;BME280;70130;44.534;18.678;2024-02-21T08:21:44;99958.31;;;6.86;100.00
80733;BME280;70130;44.534;18.678;2024-02-21T08:24:14;99952.63;;;6.98;100.00
80733;BME280;70130;44.534;18.678;2024-02-21T08:26:42;99947.53;;;7.02;100.00
80733;BME280;70130;44.534;18.678;2024-02-21T08:29:10;99943.56;;;6.99;100.00
80733;BME280;70130;44.534;18.678;2024-02-21T08:31:36;99946.13;;;7.14;100.00
80733;BME280;70130;44.534;18.678;2024-02-21T08:34:01;99952.28;;;7.15;100.00
80733;BME280;70130;44.534;18.678;2024-02-21T08:36:34;99947.66;;;7.20;100.00
80733;BME280;70130;44.534;18.678;2024-02-21T08:39:01;99948.56;;;7.06;100.00
80733;BME280;70130;44.534;18.678;2024-02-21T08:41:30;99943.72;;;7.13;100.00
80733;BME280;70130;44.534;18.678;2024-02-21T08:43:56;99933.84;;;7.13;100.00
80733;BME280;70130;44.534;18.678;2024-02-21T08:46:23;99925.00;;;7.18;100.00
80733;BME280;70130;44.534;18.678;2024-02-21T08:48:53;99936.19;;;7.25;100.00
80733;BME280;70130;44.534;18.678;2024-02-21T08:51:19;99945.50;;;7.27;100.00
80733;BME280;70130;44.534;18.678;2024-02-21T08:53:45;99936.69;;;7.27;100.00
80733;BME280;70130;44.534;18.678;2024-02-21T08:56:11;99939.94;;;7.24;100.00
80733;BME280;70130;44.534;18.678;2024-02-21T08:58:38;99938.25;;;7.33;100.00
80733;BME280;70130;44.534;18.678;2024-02-21T09:01:04;99922.00;;;7.29;100.00
80733;BME280;70130;44.534;18.678;2024-02-21T09:03:32;99923.03;;;7.33;100.00
80733;BME280;70130;44.534;18.678;2024-02-21T09:05:57;99932.81;;;7.43;100.00
80733;BME280;70130;44.534;18.678;2024-02-21T09:08:24;99931.75;;;7.44;100.00
80733;BME280;70130;44.534;18.678;2024-02-21T09:10:49;99940.53;;;7.50;100.00
80733;BME280;70130;44.534;18.678;2024-02-21T09:13:17;99931.19;;;7.47;100.00
80733;BME280;70130;44.534;18.678;2024-02-21T09:15:44;99944.47;;;7.57;100.00
80733;BME280;70130;44.534;18.678;2024-02-21T09:18:09;99946.06;;;7.58;100.00
80733;BME280;70130;44.534;18.678;2024-02-21T09:20:35;99940.72;;;7.58;100.00
80733;BME280;70130;44.534;18.678;2024-02-21T09:23:03;99933.63;;;7.72;100.00
80733;BME280;70130;44.534;18.678;2024-02-21T09:25:30;99938.34;;;7.80;100.00
80733;BME280;70130;44.534;18.678;2024-02-21T09:27:57;99933.53;;;7.82;99.75
80733;BME280;70130;44.534;18.678;2024-02-21T09:30:23;99930.81;;;7.88;99.84
80733;BME280;70130;44.534;18.678;2024-02-21T09:32:50;99932.38;;;7.94;99.77
80733;BME280;70130;44.534;18.678;2024-02-21T09:35:15;99939.22;;;8.00;98.22
80733;BME280;70130;44.534;18.678;2024-02-21T09:37:41;99924.72;;;8.06;96.29
80733;BME280;70130;44.534;18.678;2024-02-21T09:40:07;99926.97;;;8.22;97.37
80733;BME280;70130;44.534;18.678;2024-02-21T09:42:40;99936.81;;;8.27;97.85
80733;BME280;70130;44.534;18.678;2024-02-21T09:45:19;99952.56;;;8.29;94.24
80733;BME280;70130;44.534;18.678;2024-02-21T09:50:34;99952.84;;;8.27;92.85
80733;BME280;70130;44.534;18.678;2024-02-21T09:53:05;99948.53;;;8.31;92.55
80733;BME280;70130;44.534;18.678;2024-02-21T09:55:36;99954.00;;;8.45;89.14
80733;BME280;70130;44.534;18.678;2024-02-21T09:58:07;99938.53;;;8.42;89.16
80733;BME280;70130;44.534;18.678;2024-02-21T10:00:35;99941.69;;;8.44;90.15
80733;BME280;70130;44.534;18.678;2024-02-21T10:03:00;99941.63;;;8.49;89.73
80733;BME280;70130;44.534;18.678;2024-02-21T10:05:27;99931.66;;;8.54;89.24
80733;BME280;70130;44.534;18.678;2024-02-21T10:07:56;99926.25;;;8.59;89.66
80733;BME280;70130;44.534;18.678;2024-02-21T10:10:24;99928.38;;;8.62;89.01
80733;BME280;70130;44.534;18.678;2024-02-21T10:16:37;99924.75;;;8.91;87.26
80733;BME280;70130;44.534;18.678;2024-02-21T10:19:02;99911.09;;;8.92;87.23
80733;BME280;70130;44.534;18.678;2024-02-21T10:21:30;99904.56;;;8.98;86.68
80733;BME280;70130;44.534;18.678;2024-02-21T10:23:57;99910.16;;;9.02;87.05
80733;BME280;70130;44.534;18.678;2024-02-21T10:26:22;99890.09;;;8.99;86.99
80733;BME280;70130;44.534;18.678;2024-02-21T10:28:48;99885.50;;;8.86;87.46
80733;BME280;70130;44.534;18.678;2024-02-21T10:31:27;99889.94;;;9.09;88.04
80733;BME280;70130;44.534;18.678;2024-02-21T10:33:57;99905.13;;;9.14;87.40
80733;BME280;70130;44.534;18.678;2024-02-21T10:40:29;99885.53;;;9.00;87.30
80733;BME280;70130;44.534;18.678;2024-02-21T10:42:59;99873.47;;;9.02;86.46
80733;BME280;70130;44.534;18.678;2024-02-21T10:45:34;99874.69;;;9.10;85.44
80733;BME280;70130;44.534;18.678;2024-02-21T10:50:32;99876.47;;;9.15;85.87
80733;BME280;70130;44.534;18.678;2024-02-21T10:53:09;99885.66;;;9.08;84.21
80733;BME280;70130;44.534;18.678;2024-02-21T10:55:50;99870.31;;;9.14;83.71
80733;BME280;70130;44.534;18.678;2024-02-21T10:58:20;99861.63;;;9.22;83.48
80733;BME280;70130;44.534;18.678;2024-02-21T11:00:46;99859.44;;;9.24;82.84
80733;BME280;70130;44.534;18.678;2024-02-21T11:03:12;99850.16;;;9.35;82.36
80733;BME280;70130;44.534;18.678;2024-02-21T11:09:30;99826.84;;;9.36;82.71
80733;BME280;70130;44.534;18.678;2024-02-21T11:12:02;99823.81;;;9.56;83.61
80733;BME280;70130;44.534;18.678;2024-02-21T11:14:29;99824.59;;;9.70;84.40
80733;BME280;70130;44.534;18.678;2024-02-21T11:16:58;99810.09;;;9.58;83.12
80733;BME280;70130;44.534;18.678;2024-02-21T11:19:27;99822.09;;;9.46;81.32
80733;BME280;70130;44.534;18.678;2024-02-21T11:21:54;99799.97;;;9.41;81.27
80733;BME280;70130;44.534;18.678;2024-02-21T11:24:33;99797.38;;;9.63;81.82
80733;BME280;70130;44.534;18.678;2024-02-21T11:27:15;99804.75;;;9.85;82.01
80733;BME280;70130;44.534;18.678;2024-02-21T11:29:45;99793.41;;;9.88;79.28
80733;BME280;70130;44.534;18.678;2024-02-21T11:32:13;99785.47;;;9.83;78.20
80733;BME280;70130;44.534;18.678;2024-02-21T11:34:40;99784.88;;;9.86;79.25
80733;BME280;70130;44.534;18.678;2024-02-21T11:37:13;99778.19;;;9.97;78.43
80733;BME280;70130;44.534;18.678;2024-02-21T11:39:41;99783.84;;;10.09;76.55
80733;BME280;70130;44.534;18.678;2024-02-21T11:42:07;99777.28;;;10.15;76.00
80733;BME280;70130;44.534;18.678;2024-02-21T11:44:37;99765.97;;;10.18;75.54
80733;BME280;70130;44.534;18.678;2024-02-21T11:47:04;99766.97;;;10.22;73.16
80733;BME280;70130;44.534;18.678;2024-02-21T11:49:30;99767.00;;;10.45;74.03
80733;BME280;70130;44.534;18.678;2024-02-21T11:51:59;99758.63;;;10.24;72.48
80733;BME280;70130;44.534;18.678;2024-02-21T11:54:27;99757.72;;;10.28;73.44
80733;BME280;70130;44.534;18.678;2024-02-21T11:56:52;99754.16;;;10.19;73.53
80733;BME280;70130;44.534;18.678;2024-02-21T11:59:18;99753.97;;;10.16;73.37
80733;BME280;70130;44.534;18.678;2024-02-21T12:01:44;99745.94;;;10.16;73.28
80733;BME280;70130;44.534;18.678;2024-02-21T12:04:11;99737.91;;;10.38;71.69
80733;BME280;70130;44.534;18.678;2024-02-21T12:06:36;99745.47;;;10.58;70.06
80733;BME280;70130;44.534;18.678;2024-02-21T12:09:02;99739.94;;;10.55;70.49
80733;BME280;70130;44.534;18.678;2024-02-21T12:11:28;99745.53;;;10.67;69.64
80733;BME280;70130;44.534;18.678;2024-02-21T12:16:30;99718.44;;;10.77;67.95
80733;BME280;70130;44.534;18.678;2024-02-21T12:18:57;99711.41;;;10.90;69.38
80733;BME280;70130;44.534;18.678;2024-02-21T12:21:27;99720.66;;;10.75;64.72
80733;BME280;70130;44.534;18.678;2024-02-21T12:23:55;99715.53;;;10.65;65.57
80733;BME280;70130;44.534;18.678;2024-02-21T12:26:21;99711.38;;;10.59;64.97
80733;BME280;70130;44.534;18.678;2024-02-21T12:28:46;99704.56;;;10.53;66.50
80733;BME280;70130;44.534;18.678;2024-02-21T12:31:12;99697.41;;;10.48;66.81
80733;BME280;70130;44.534;18.678;2024-02-21T12:33:38;99698.03;;;10.45;67.06
80733;BME280;70130;44.534;18.678;2024-02-21T12:36:04;99682.47;;;10.33;66.49
80733;BME280;70130;44.534;18.678;2024-02-21T12:38:30;99673.16;;;10.31;67.34
80733;BME280;70130;44.534;18.678;2024-02-21T12:40:55;99689.19;;;10.45;68.24
80733;BME280;70130;44.534;18.678;2024-02-21T12:43:26;99674.50;;;10.42;68.50
80733;BME280;70130;44.534;18.678;2024-02-21T12:45:52;99684.19;;;10.29;67.82
80733;BME280;70130;44.534;18.678;2024-02-21T12:48:18;99681.00;;;10.27;68.48
80733;BME280;70130;44.534;18.678;2024-02-21T12:50:50;99679.66;;;10.16;68.22
80733;BME280;70130;44.534;18.678;2024-02-21T12:53:19;99678.38;;;10.14;68.67
80733;BME280;70130;44.534;18.678;2024-02-21T12:55:50;99680.53;;;10.12;68.54
80733;BME280;70130;44.534;18.678;2024-02-21T12:58:16;99674.81;;;10.05;68.61
80733;BME280;70130;44.534;18.678;2024-02-21T13:00:43;99677.84;;;10.12;68.96
80733;BME280;70130;44.534;18.678;2024-02-21T13:03:10;99665.81;;;10.01;69.33
80733;BME280;70130;44.534;18.678;2024-02-21T13:05:36;99666.66;;;10.10;69.84
80733;BME280;70130;44.534;18.678;2024-02-21T13:08:02;99670.13;;;10.10;70.57
80733;BME280;70130;44.534;18.678;2024-02-21T13:10:28;99667.94;;;10.12;70.19